createdAt,value
2018-04-12T00:00:44.139Z,10.69
2018-04-12T00:03:12.396Z,10.69
2018-04-12T00:05:40.701Z,10.66
2018-04-12T00:08:09.778Z,10.66
2018-04-12T00:10:38.031Z,10.58
2018-04-12T00:13:06.332Z,10.52
2018-04-12T00:15:34.584Z,10.57
2018-04-12T00:18:02.835Z,10.56
2018-04-12T00:20:31.064Z,10.50
2018-04-12T00:23:00.671Z,10.47
2018-04-12T00:25:29.672Z,10.41
2018-04-12T00:27:57.985Z,10.43
2018-04-12T00:30:26.227Z,10.42
2018-04-12T00:32:54.482Z,10.33
2018-04-12T00:35:22.717Z,10.33
2018-04-12T00:37:50.978Z,10.29
2018-04-12T00:40:19.216Z,10.26
2018-04-12T00:42:48.253Z,10.19
2018-04-12T00:45:16.496Z,10.14
2018-04-12T00:47:44.747Z,10.09
2018-04-12T00:50:12.982Z,10.04
2018-04-12T00:52:42.019Z,10.06
2018-04-12T00:55:10.252Z,9.91
2018-04-12T00:57:38.497Z,9.92
2018-04-12T01:00:06.740Z,9.87
2018-04-12T01:02:34.985Z,9.84
2018-04-12T01:05:03.216Z,9.88
2018-04-12T01:07:31.467Z,9.79
2018-04-12T01:09:59.737Z,9.75
2018-04-12T01:12:28.009Z,9.76
2018-04-12T01:14:56.255Z,9.61
2018-04-12T01:17:24.598Z,9.55
2018-04-12T01:19:52.826Z,9.50
2018-04-12T01:22:21.090Z,9.47
2018-04-12T01:24:49.313Z,9.44
2018-04-12T01:27:17.583Z,9.41
2018-04-12T01:29:45.833Z,9.40
2018-04-12T01:32:14.846Z,9.38
2018-04-12T01:34:43.083Z,9.38
2018-04-12T01:37:12.123Z,9.33
2018-04-12T01:39:40.361Z,9.35
2018-04-12T01:42:09.385Z,9.27
2018-04-12T01:44:37.628Z,9.28
2018-04-12T01:47:05.911Z,9.33
2018-04-12T01:49:34.139Z,9.30
2018-04-12T01:52:02.979Z,9.25
2018-04-12T01:54:32.007Z,9.30
2018-04-12T01:57:00.243Z,9.31
2018-04-12T01:59:28.508Z,9.26
2018-04-12T02:01:56.785Z,9.39
2018-04-12T02:04:25.038Z,9.34
2018-04-12T02:06:54.038Z,9.37
2018-04-12T02:09:23.090Z,9.39
2018-04-12T02:11:51.350Z,9.40
2018-04-12T02:14:20.374Z,9.43
2018-04-12T02:16:48.640Z,9.42
2018-04-12T02:19:17.642Z,9.43
2018-04-12T02:21:46.658Z,9.34
2018-04-12T02:24:15.684Z,9.22
2018-04-12T02:26:44.042Z,9.26
2018-04-12T02:29:13.284Z,9.24
2018-04-12T02:31:42.905Z,9.26
2018-04-12T02:34:11.165Z,9.20
2018-04-12T02:36:40.145Z,9.20
2018-04-12T02:39:08.396Z,9.10
2018-04-12T02:41:36.634Z,9.04
2018-04-12T02:44:04.891Z,9.00
2018-04-12T02:46:33.142Z,8.95
2018-04-12T02:49:02.167Z,8.88
2018-04-12T02:51:30.408Z,8.81
2018-04-12T02:53:58.646Z,8.80
2018-04-12T02:56:26.877Z,8.74
2018-04-12T02:58:55.135Z,8.67
2018-04-12T03:01:23.356Z,8.74
2018-04-12T03:03:51.607Z,8.74
2018-04-12T03:06:19.833Z,8.64
2018-04-12T03:08:48.093Z,8.79
2018-04-12T03:11:16.331Z,8.90
2018-04-12T03:13:45.374Z,8.98
2018-04-12T03:16:13.631Z,9.00
2018-04-12T03:18:42.648Z,8.91
2018-04-12T03:21:10.896Z,8.92
2018-04-12T03:23:39.128Z,8.85
2018-04-12T03:26:07.393Z,8.85
2018-04-12T03:28:35.623Z,8.86
2018-04-12T03:31:03.872Z,8.90
2018-04-12T03:33:32.110Z,8.87
2018-04-12T03:36:00.371Z,8.80
2018-04-12T03:38:28.610Z,8.74
2018-04-12T03:40:56.868Z,8.76
2018-04-12T03:43:25.113Z,8.77
2018-04-12T03:45:54.119Z,8.78
2018-04-12T03:48:23.128Z,8.75
2018-04-12T03:50:51.391Z,8.78
2018-04-12T03:53:19.632Z,8.70
2018-04-12T03:55:47.889Z,8.64
2018-04-12T03:58:16.133Z,8.64
2018-04-12T04:00:44.401Z,8.51
2018-04-12T04:03:12.651Z,8.52
2018-04-12T04:05:40.891Z,8.53
2018-04-12T04:08:09.130Z,8.54
2018-04-12T04:10:37.367Z,8.58
2018-04-12T04:13:05.599Z,8.52
2018-04-12T04:15:52.296Z,8.42
2018-04-12T04:21:32.235Z,8.41
2018-04-12T04:24:01.299Z,8.36
2018-04-12T04:26:29.567Z,8.35
2018-04-12T04:28:57.801Z,8.41
2018-04-12T04:31:26.039Z,8.51
2018-04-12T04:33:54.286Z,8.52
2018-04-12T04:36:22.538Z,8.52
2018-04-12T04:38:50.767Z,8.68
2018-04-12T04:41:19.779Z,8.68
2018-04-12T04:43:48.793Z,8.76
2018-04-12T04:46:17.901Z,8.94
2018-04-12T04:48:47.104Z,8.91
2018-04-12T04:51:16.133Z,9.02
2018-04-12T04:53:44.407Z,9.04
2018-04-12T04:56:13.465Z,9.04
2018-04-12T04:58:41.699Z,9.12
2018-04-12T05:01:10.720Z,9.14
2018-04-12T05:03:38.958Z,9.14
2018-04-12T05:06:07.191Z,9.20
2018-04-12T05:08:35.422Z,9.26
2018-04-12T05:11:03.676Z,9.31
2018-04-12T05:13:31.929Z,9.34
2018-04-12T05:16:00.179Z,9.43
2018-04-12T05:18:28.441Z,9.44
2018-04-12T05:20:58.029Z,9.41
2018-04-12T05:23:26.273Z,9.38
2018-04-12T05:25:54.536Z,9.48
2018-04-12T05:28:22.771Z,9.55
2018-04-12T05:30:51.039Z,9.59
2018-04-12T05:33:19.276Z,9.62
2018-04-12T05:35:47.538Z,9.78
2018-04-12T05:38:15.788Z,9.83
2018-04-12T05:40:44.038Z,10.23
2018-04-12T05:43:13.781Z,10.13
2018-04-12T05:45:42.038Z,10.20
2018-04-12T05:48:10.307Z,10.40
2018-04-12T05:50:38.546Z,10.60
2018-04-12T05:53:07.574Z,10.82
2018-04-12T05:55:35.804Z,11.06
2018-04-12T05:58:04.078Z,11.33
2018-04-12T06:00:32.303Z,11.57
2018-04-12T06:03:00.566Z,11.73
2018-04-12T06:05:28.800Z,11.75
2018-04-12T06:07:57.078Z,11.62
2018-04-12T06:10:26.078Z,11.80
2018-04-12T06:12:55.103Z,12.04
2018-04-12T06:15:24.100Z,12.20
2018-04-12T06:17:53.142Z,12.38
2018-04-12T06:20:21.390Z,12.34
2018-04-12T06:22:50.471Z,12.48
2018-04-12T06:25:19.471Z,12.70
2018-04-12T06:27:47.751Z,12.65
2018-04-12T06:30:16.055Z,12.73
2018-04-12T06:32:44.328Z,12.86
2018-04-12T06:35:13.353Z,13.07
2018-04-12T06:37:41.639Z,13.19
2018-04-12T06:40:09.895Z,13.37
2018-04-12T06:42:38.165Z,13.60
2018-04-12T06:45:07.175Z,13.91
2018-04-12T06:47:35.501Z,14.67
2018-04-12T06:50:04.510Z,15.26
2018-04-12T06:52:32.796Z,15.09
2018-04-12T06:55:01.043Z,14.68
2018-04-12T06:57:29.318Z,14.96
2018-04-12T06:59:58.423Z,15.36
2018-04-12T07:02:26.685Z,15.50
2018-04-12T07:04:55.020Z,15.11
2018-04-12T07:07:23.264Z,15.31
2018-04-12T07:09:51.531Z,15.41
2018-04-12T07:12:19.759Z,15.32
2018-04-12T07:14:49.519Z,15.25
2018-04-12T07:17:17.773Z,15.37
2018-04-12T07:19:46.022Z,15.47
2018-04-12T07:22:14.280Z,15.95
2018-04-12T07:24:42.565Z,16.41
2018-04-12T07:27:10.823Z,16.21
2018-04-12T07:29:39.863Z,16.45
2018-04-12T07:32:08.113Z,16.37
2018-04-12T07:34:36.406Z,16.07
2018-04-12T07:37:04.676Z,16.83
2018-04-12T07:39:33.696Z,16.75
2018-04-12T07:42:01.953Z,17.47
2018-04-12T07:44:30.223Z,17.47
2018-04-12T07:46:58.478Z,16.94
2018-04-12T07:49:27.511Z,17.18
2018-04-12T07:51:55.767Z,17.74
2018-04-12T07:54:24.028Z,17.75
2018-04-12T07:56:52.345Z,17.30
2018-04-12T07:59:21.524Z,17.96
2018-04-12T08:01:49.763Z,18.24
2018-04-12T08:04:18.787Z,18.29
2018-04-12T08:06:47.041Z,18.13
2018-04-12T08:09:15.312Z,18.09
2018-04-12T08:11:43.582Z,18.06
2018-04-12T08:14:11.863Z,17.99
2018-04-12T08:16:40.099Z,17.73
2018-04-12T08:19:09.127Z,17.44
2018-04-12T08:21:37.394Z,17.56
2018-04-12T08:24:05.667Z,17.74
2018-04-12T08:26:33.915Z,17.57
2018-04-12T08:29:02.161Z,17.75
2018-04-12T08:31:30.422Z,18.03
2018-04-12T08:33:58.672Z,17.90
2018-04-12T08:36:26.933Z,18.23
2018-04-12T08:38:55.944Z,18.16
2018-04-12T08:41:24.996Z,18.20
2018-04-12T08:43:53.238Z,17.93
2018-04-12T08:46:22.268Z,18.09
2018-04-12T08:48:50.516Z,17.92
2018-04-12T08:51:18.782Z,17.88
2018-04-12T08:53:47.038Z,17.72
2018-04-12T08:56:16.051Z,17.88
2018-04-12T08:58:44.300Z,17.65
2018-04-12T09:01:12.571Z,17.47
2018-04-12T09:03:42.282Z,17.72
2018-04-12T09:06:10.546Z,17.76
2018-04-12T09:08:38.780Z,18.20
2018-04-12T09:11:07.056Z,17.89
2018-04-12T09:13:35.295Z,18.20
2018-04-12T09:16:04.336Z,18.53
2018-04-12T09:18:34.098Z,18.98
2018-04-12T09:21:02.347Z,18.56
2018-04-12T09:23:30.598Z,18.32
2018-04-12T09:25:58.862Z,18.42
2018-04-12T09:28:27.091Z,18.85
2018-04-12T09:30:55.693Z,19.01
2018-04-12T09:33:23.923Z,19.83
2018-04-12T09:35:52.183Z,19.94
2018-04-12T09:38:20.435Z,20.28
2018-04-12T09:40:48.677Z,19.99
2018-04-12T09:43:16.934Z,19.96
2018-04-12T09:45:45.192Z,20.31
2018-04-12T09:48:14.198Z,19.95
2018-04-12T09:50:43.219Z,20.27
2018-04-12T09:53:11.474Z,20.19
2018-04-12T09:55:39.726Z,20.03
2018-04-12T09:58:07.993Z,20.42
2018-04-12T10:00:36.218Z,20.62
2018-04-12T10:03:13.004Z,20.27
2018-04-12T10:05:46.658Z,19.87
2018-04-12T10:08:21.134Z,19.72
2018-04-12T10:10:49.373Z,19.85
2018-04-12T10:13:17.629Z,20.19
2018-04-12T10:15:46.670Z,20.39
2018-04-12T10:18:14.911Z,20.42
2018-04-12T10:20:43.171Z,20.41
2018-04-12T10:23:11.434Z,20.48
2018-04-12T10:25:39.674Z,20.56
2018-04-12T10:28:07.919Z,20.85
2018-04-12T10:30:36.940Z,20.29
2018-04-12T10:33:05.994Z,20.08
2018-04-12T10:35:34.269Z,20.62
2018-04-12T10:38:02.515Z,21.00
2018-04-12T10:40:31.519Z,20.65
2018-04-12T10:43:00.538Z,20.80
2018-04-12T10:45:29.555Z,21.21
2018-04-12T10:47:57.811Z,21.52
2018-04-12T10:50:26.044Z,20.79
2018-04-12T10:52:54.311Z,20.95
2018-04-12T10:55:23.314Z,20.90
2018-04-12T10:57:52.347Z,21.03
2018-04-12T11:00:20.613Z,20.87
2018-04-12T11:02:49.615Z,21.28
2018-04-12T11:05:18.659Z,21.13
2018-04-12T11:07:46.911Z,21.43
2018-04-12T11:10:16.993Z,21.84
2018-04-12T11:12:45.280Z,21.98
2018-04-12T11:15:13.550Z,21.77
2018-04-12T11:17:42.707Z,22.40
2018-04-12T11:20:10.980Z,22.20
2018-04-12T11:22:39.221Z,22.52
2018-04-12T11:25:07.529Z,22.86
2018-04-12T11:27:35.760Z,22.96
2018-04-12T11:30:04.025Z,22.90
2018-04-12T11:32:32.271Z,22.94
2018-04-12T11:35:00.559Z,22.70
2018-04-12T11:37:29.557Z,22.36
2018-04-12T11:39:57.819Z,22.27
2018-04-12T11:42:26.079Z,22.06
2018-04-12T11:44:54.326Z,22.40
2018-04-12T11:47:23.348Z,21.98
2018-04-12T11:49:51.631Z,22.28
2018-04-12T11:52:19.846Z,22.37
2018-04-12T11:54:48.898Z,22.37
2018-04-12T11:57:17.148Z,22.00
2018-04-12T11:59:46.597Z,21.91
2018-04-12T12:02:14.856Z,21.96
2018-04-12T12:04:43.216Z,22.43
2018-04-12T12:07:12.233Z,22.18
2018-04-12T12:09:40.502Z,22.25
2018-04-12T12:12:08.748Z,22.22
2018-04-12T12:14:37.019Z,22.16
2018-04-12T12:17:06.049Z,22.38
2018-04-12T12:19:34.288Z,22.00
2018-04-12T12:22:02.533Z,22.14
2018-04-12T12:24:30.806Z,22.27
2018-04-12T12:26:59.059Z,22.39
2018-04-12T12:29:27.331Z,22.09
2018-04-12T12:31:55.580Z,22.15
2018-04-12T12:34:23.860Z,22.35
2018-04-12T12:36:53.120Z,21.81
2018-04-12T12:39:22.147Z,22.08
2018-04-12T12:41:50.413Z,22.23
2018-04-12T12:44:18.751Z,21.74
2018-04-12T12:46:47.009Z,21.51
2018-04-12T12:49:15.262Z,21.52
2018-04-12T12:51:44.295Z,21.56
2018-04-12T12:54:12.560Z,21.64
2018-04-12T12:56:41.592Z,21.93
2018-04-12T12:59:09.836Z,21.86
2018-04-12T13:01:38.858Z,21.79
2018-04-12T13:04:07.095Z,21.54
2018-04-12T13:06:35.360Z,21.19
2018-04-12T13:09:04.362Z,21.56
2018-04-12T13:11:33.484Z,22.06
2018-04-12T13:14:02.480Z,22.06
2018-04-12T13:16:31.511Z,22.31
2018-04-12T13:18:59.754Z,22.07
2018-04-12T13:21:28.779Z,22.46
2018-04-12T13:23:57.780Z,22.20
2018-04-12T13:26:26.816Z,22.08
2018-04-12T13:28:55.041Z,22.11
2018-04-12T13:31:23.317Z,21.85
2018-04-12T13:33:51.569Z,22.03
2018-04-12T13:36:20.611Z,22.00
2018-04-12T13:38:48.860Z,22.00
2018-04-12T13:41:17.899Z,22.26
2018-04-12T13:43:46.182Z,21.82
2018-04-12T13:46:14.457Z,22.04
2018-04-12T13:48:42.746Z,22.31
2018-04-12T13:51:11.016Z,22.21
2018-04-12T13:53:39.280Z,22.52
2018-04-12T13:56:07.865Z,22.31
2018-04-12T13:58:37.589Z,22.17
2018-04-12T14:01:06.028Z,22.28
2018-04-12T14:03:35.177Z,21.98
2018-04-12T14:06:03.678Z,21.76
2018-04-12T14:08:32.030Z,21.46
2018-04-12T14:11:00.706Z,21.31
2018-04-12T14:13:29.967Z,21.41
2018-04-12T14:15:59.093Z,21.48
2018-04-12T14:18:27.742Z,21.58
2018-04-12T14:20:56.682Z,21.30
2018-04-12T14:23:25.105Z,20.88
2018-04-12T14:25:53.499Z,21.52
2018-04-12T14:28:21.971Z,21.41
2018-04-12T14:30:50.341Z,21.36
2018-04-12T14:33:20.332Z,21.38
2018-04-12T14:35:49.657Z,21.65
2018-04-12T14:38:19.435Z,21.51
2018-04-12T14:40:47.711Z,21.59
2018-04-12T14:43:16.032Z,21.77
2018-04-12T14:45:44.568Z,22.34
2018-04-12T14:48:13.027Z,22.09
2018-04-12T14:50:41.516Z,22.19
2018-04-12T14:53:10.319Z,22.81
2018-04-12T14:55:38.632Z,22.83
2018-04-12T14:58:07.723Z,21.41
2018-04-12T15:00:36.144Z,21.43
2018-04-12T15:03:04.671Z,21.09
2018-04-12T15:05:33.986Z,21.23
2018-04-12T15:08:02.348Z,21.34
2018-04-12T15:10:31.527Z,20.89
2018-04-12T15:13:00.385Z,20.77
2018-04-12T15:15:29.824Z,20.58
2018-04-12T15:17:58.565Z,20.60
2018-04-12T15:20:28.149Z,20.79
2018-04-12T15:22:56.498Z,20.87
2018-04-12T15:25:24.806Z,20.37
2018-04-12T15:27:53.189Z,21.01
2018-04-12T15:30:21.503Z,20.91
2018-04-12T15:32:50.006Z,21.51
2018-04-12T15:35:18.473Z,21.69
2018-04-12T15:37:46.760Z,21.93
2018-04-12T15:40:16.030Z,21.48
2018-04-12T15:42:45.122Z,21.62
2018-04-12T15:45:13.379Z,21.42
2018-04-12T15:47:41.895Z,21.55
2018-04-12T15:50:11.089Z,21.41
2018-04-12T15:52:39.667Z,21.76
2018-04-12T15:55:08.246Z,21.21
2018-04-12T15:57:36.800Z,21.13
2018-04-12T16:00:05.156Z,20.84
2018-04-12T16:02:33.501Z,20.71
2018-04-12T16:05:01.877Z,20.66
2018-04-12T16:07:30.325Z,20.21
2018-04-12T16:09:58.724Z,20.16
2018-04-12T16:12:27.110Z,19.98
2018-04-12T16:14:55.483Z,20.03
2018-04-12T16:17:24.139Z,19.74
2018-04-12T16:19:52.865Z,19.69
2018-04-12T16:22:21.334Z,19.40
2018-04-12T16:24:49.587Z,19.50
2018-04-12T16:27:17.859Z,19.36
2018-04-12T16:29:46.263Z,19.46
2018-04-12T16:32:14.573Z,19.52
2018-04-12T16:34:43.132Z,19.87
2018-04-12T16:37:11.441Z,20.22
2018-04-12T16:39:39.751Z,20.53
2018-04-12T16:42:08.286Z,20.40
2018-04-12T16:44:37.369Z,20.53
2018-04-12T16:47:05.756Z,20.43
2018-04-12T16:49:34.110Z,20.64
2018-04-12T16:52:02.546Z,20.75
2018-04-12T16:54:31.293Z,20.70
2018-04-12T16:56:59.810Z,20.66
2018-04-12T16:59:28.353Z,20.82
2018-04-12T17:01:57.071Z,20.73
2018-04-12T17:04:25.391Z,20.45
2018-04-12T17:06:53.902Z,20.44
2018-04-12T17:09:22.184Z,20.70
2018-04-12T17:11:50.525Z,21.57
2018-04-12T17:14:19.687Z,22.86
2018-04-12T17:16:48.008Z,23.36
2018-04-12T17:19:16.306Z,23.27
2018-04-12T17:21:44.635Z,23.66
2018-04-12T17:24:13.034Z,24.11
2018-04-12T17:26:41.531Z,23.56
2018-04-12T17:29:09.986Z,22.37
2018-04-12T17:31:38.472Z,21.83
2018-04-12T17:34:06.739Z,21.12
2018-04-12T17:36:35.036Z,20.80
2018-04-12T17:39:04.056Z,20.21
2018-04-12T17:41:32.550Z,19.91
2018-04-12T17:44:00.879Z,19.99
2018-04-12T17:46:29.213Z,19.34
2018-04-12T17:48:57.459Z,18.83
2018-04-12T17:51:26.393Z,18.57
2018-04-12T17:53:54.629Z,18.10
2018-04-12T17:56:23.660Z,17.94
2018-04-12T17:58:51.914Z,17.74
2018-04-12T18:01:20.187Z,17.51
2018-04-12T18:03:48.536Z,17.39
2018-04-12T18:06:16.817Z,17.24
2018-04-12T18:08:45.245Z,17.05
2018-04-12T18:11:13.883Z,16.82
2018-04-12T18:13:43.120Z,16.59
2018-04-12T18:16:12.792Z,16.60
2018-04-12T18:18:41.189Z,16.65
2018-04-12T18:21:10.533Z,16.36
2018-04-12T18:23:38.998Z,16.36
2018-04-12T18:26:07.261Z,16.20
2018-04-12T18:28:35.567Z,15.99
2018-04-12T18:31:04.640Z,15.86
2018-04-12T18:33:32.917Z,15.81
2018-04-12T18:36:01.220Z,15.77
2018-04-12T18:38:30.237Z,15.61
2018-04-12T18:40:59.283Z,15.55
2018-04-12T18:43:28.326Z,15.53
2018-04-12T18:45:56.599Z,15.44
2018-04-12T18:48:24.862Z,15.25
2018-04-12T18:50:53.133Z,15.03
2018-04-12T18:53:21.392Z,15.08
2018-04-12T18:55:49.655Z,15.00
2018-04-12T18:58:17.974Z,15.04
2018-04-12T19:00:46.237Z,15.04
2018-04-12T19:03:15.268Z,14.91
2018-04-12T19:05:43.564Z,14.80
2018-04-12T19:08:11.824Z,14.54
2018-04-12T19:10:40.108Z,14.40
2018-04-12T19:13:09.186Z,14.40
2018-04-12T19:15:37.453Z,14.21
2018-04-12T19:18:06.472Z,14.25
2018-04-12T19:20:34.765Z,14.13
2018-04-12T19:23:03.022Z,14.19
2018-04-12T19:25:31.273Z,14.21
2018-04-12T19:28:00.355Z,14.34
2018-04-12T19:30:28.609Z,14.41
2018-04-12T19:32:56.883Z,14.32
2018-04-12T19:35:25.170Z,14.24
2018-04-12T19:37:53.470Z,14.01
2018-04-12T19:40:21.725Z,14.02
2018-04-12T19:42:50.806Z,13.89
2018-04-12T19:45:19.100Z,13.75
2018-04-12T19:47:47.407Z,13.81
2018-04-12T19:50:16.831Z,13.60
2018-04-12T19:52:45.882Z,13.38
2018-04-12T19:55:14.243Z,13.39
2018-04-12T19:57:42.546Z,13.39
2018-04-12T20:00:10.837Z,13.23
2018-04-12T20:02:39.130Z,13.19
2018-04-12T20:05:07.415Z,13.09
2018-04-12T20:07:35.695Z,13.14
2018-04-12T20:10:03.957Z,13.02
2018-04-12T20:12:33.001Z,13.02
2018-04-12T20:15:01.287Z,12.95
2018-04-12T20:17:29.615Z,12.78
2018-04-12T20:19:57.870Z,12.71
2018-04-12T20:22:26.175Z,12.83
2018-04-12T20:24:54.477Z,12.81
2018-04-12T20:27:22.728Z,12.92
2018-04-12T20:29:51.790Z,12.82
2018-04-12T20:32:21.394Z,12.82
2018-04-12T20:34:49.663Z,12.71
2018-04-12T20:37:17.949Z,12.64
2018-04-12T20:39:46.322Z,12.47
2018-04-12T20:42:14.603Z,12.43
2018-04-12T20:44:43.746Z,12.38
2018-04-12T20:47:12.055Z,12.33
2018-04-12T20:49:41.170Z,12.18
2018-04-12T20:52:09.459Z,12.13
2018-04-12T20:54:37.737Z,12.03
2018-04-12T20:57:06.003Z,12.08
2018-04-12T20:59:34.282Z,11.96
2018-04-12T21:02:03.672Z,11.90
2018-04-12T21:04:32.763Z,11.81
2018-04-12T21:07:01.076Z,11.77
2018-04-12T21:09:30.877Z,11.77
2018-04-12T21:11:59.111Z,11.76
2018-04-12T21:14:27.421Z,11.71
2018-04-12T21:16:55.680Z,11.70
2018-04-12T21:19:23.956Z,11.58
2018-04-12T21:21:52.986Z,11.44
2018-04-12T21:24:21.261Z,11.33
2018-04-12T21:26:49.533Z,11.42
2018-04-12T21:29:18.593Z,11.39
2018-04-12T21:31:46.872Z,11.38
2018-04-12T21:34:15.134Z,11.35
2018-04-12T21:36:43.440Z,11.24
2018-04-12T21:39:11.724Z,11.26
2018-04-12T21:41:39.983Z,11.22
2018-04-12T21:44:09.008Z,11.19
2018-04-12T21:46:38.599Z,11.21
2018-04-12T21:49:06.880Z,11.19
2018-04-12T21:51:35.138Z,11.19
2018-04-12T21:54:04.180Z,11.14
2018-04-12T21:56:32.427Z,11.05
2018-04-12T21:59:00.726Z,10.90
2018-04-12T22:01:28.973Z,10.77
2018-04-12T22:03:57.971Z,10.67
2018-04-12T22:06:26.989Z,10.69
2018-04-12T22:08:56.011Z,10.72
2018-04-12T22:11:24.271Z,10.63
2018-04-12T22:13:54.224Z,10.59
2018-04-12T22:16:22.484Z,10.58
2018-04-12T22:18:50.712Z,10.52
2018-04-12T22:21:18.966Z,10.45
2018-04-12T22:23:47.968Z,10.38
2018-04-12T22:26:16.230Z,10.45
2018-04-12T22:28:44.525Z,10.31
2018-04-12T22:31:12.800Z,10.20
2018-04-12T22:33:41.043Z,10.23
2018-04-12T22:36:09.310Z,10.23
2018-04-12T22:38:37.549Z,10.22
2018-04-12T22:41:05.812Z,10.18
2018-04-12T22:43:34.804Z,10.16
2018-04-12T22:46:03.813Z,10.04
2018-04-12T22:48:33.404Z,9.98
2018-04-12T22:51:01.674Z,9.90
2018-04-12T22:53:29.903Z,9.73
2018-04-12T22:55:58.956Z,9.70
2018-04-12T22:58:27.297Z,9.72
2018-04-12T23:00:55.540Z,9.68
2018-04-12T23:03:23.900Z,9.65
2018-04-12T23:05:52.151Z,9.77
2018-04-12T23:08:20.387Z,9.78
2018-04-12T23:10:48.639Z,9.68
2018-04-12T23:13:16.878Z,9.68
2018-04-12T23:15:45.255Z,9.57
2018-04-12T23:18:13.621Z,9.60
2018-04-12T23:20:42.648Z,9.53
2018-04-12T23:23:10.921Z,9.62
2018-04-12T23:25:39.911Z,9.49
2018-04-12T23:28:08.163Z,9.57
2018-04-12T23:30:36.382Z,9.61
2018-04-12T23:33:04.631Z,9.47
2018-04-12T23:35:32.882Z,9.35
2018-04-12T23:38:01.943Z,9.37
2018-04-12T23:40:30.180Z,9.38
2018-04-12T23:42:59.196Z,9.44
2018-04-12T23:45:27.422Z,9.40
2018-04-12T23:47:55.678Z,9.37
2018-04-12T23:50:23.917Z,9.28
2018-04-12T23:52:52.165Z,9.32
2018-04-12T23:55:20.392Z,9.38
2018-04-12T23:57:49.400Z,9.28
